地図

経路データ

SID SEASON NUMBER BASIN SUBBASIN NAME ISO_TIME NATURE LAT LON WMO_WIND WMO_PRES WMO_AGENCY TRACK_TYPE DIST2LAND LANDFALL IFLAG USA_AGENCY USA_ATCF_ID USA_LAT USA_LON USA_RECORD USA_STATUS USA_WIND USA_PRES USA_SSHS USA_R34_NE USA_R34_SE USA_R34_SW USA_R34_NW USA_R50_NE USA_R50_SE USA_R50_SW USA_R50_NW USA_R64_NE USA_R64_SE USA_R64_SW USA_R64_NW USA_POCI USA_ROCI USA_RMW USA_EYE TOKYO_LAT TOKYO_LON TOKYO_GRADE TOKYO_WIND TOKYO_PRES TOKYO_R50_DIR TOKYO_R50_LONG TOKYO_R50_SHORT TOKYO_R30_DIR TOKYO_R30_LONG TOKYO_R30_SHORT TOKYO_LAND CMA_LAT CMA_LON CMA_CAT CMA_WIND CMA_PRES HKO_LAT HKO_LON HKO_CAT HKO_WIND HKO_PRES NEWDELHI_LAT NEWDELHI_LON NEWDELHI_GRADE NEWDELHI_WIND NEWDELHI_PRES NEWDELHI_CI NEWDELHI_DP NEWDELHI_POCI REUNION_LAT REUNION_LON REUNION_TYPE REUNION_WIND REUNION_PRES REUNION_TNUM REUNION_CI REUNION_RMW REUNION_R34_NE REUNION_R34_SE REUNION_R34_SW REUNION_R34_NW REUNION_R50_NE REUNION_R50_SE REUNION_R50_SW REUNION_R50_NW REUNION_R64_NE REUNION_R64_SE REUNION_R64_SW REUNION_R64_NW BOM_LAT BOM_LON BOM_TYPE BOM_WIND BOM_PRES BOM_TNUM BOM_CI BOM_RMW BOM_R34_NE BOM_R34_SE BOM_R34_SW BOM_R34_NW BOM_R50_NE BOM_R50_SE BOM_R50_SW BOM_R50_NW BOM_R64_NE BOM_R64_SE BOM_R64_SW BOM_R64_NW BOM_ROCI BOM_POCI BOM_EYE BOM_POS_METHOD BOM_PRES_METHOD NADI_LAT NADI_LON NADI_CAT NADI_WIND NADI_PRES WELLINGTON_LAT WELLINGTON_LON WELLINGTON_WIND WELLINGTON_PRES DS824_LAT DS824_LON DS824_STAGE DS824_WIND DS824_PRES TD9636_LAT TD9636_LON TD9636_STAGE TD9636_WIND TD9636_PRES TD9635_LAT TD9635_LON TD9635_WIND TD9635_PRES TD9635_ROCI NEUMANN_LAT NEUMANN_LON NEUMANN_CLASS NEUMANN_WIND NEUMANN_PRES MLC_LAT MLC_LON MLC_CLASS MLC_WIND MLC_PRES USA_GUST BOM_GUST BOM_GUST_PER REUNION_GUST REUNION_GUST_PER USA_SEAHGT USA_SEARAD_NE USA_SEARAD_SE USA_SEARAD_SW USA_SEARAD_NW STORM_SPEED STORM_DIR
1966201N21156 1966 43 WP MM NOT_NAMED 1966-07-20 00:00:00 TS 21.0000 156.000 main 2196 2171 __O___________ -1 21.0000 156.000 0 1012 10 260
1966201N21156 1966 43 WP MM NOT_NAMED 1966-07-20 03:00:00 TS 20.9127 155.457 main 2171 2132 __P___________ -1 20.9127 155.457 0 1012 10 264
1966201N21156 1966 43 WP MM NOT_NAMED 1966-07-20 06:00:00 TS 20.9000 154.900 main 2132 2091 __O___________ -1 20.9000 154.900 0 1012 11 275
1966201N21156 1966 43 WP MM NOT_NAMED 1966-07-20 09:00:00 TS 21.0125 154.328 main 2085 2036 __P___________ -1 21.0125 154.328 0 1011 11 286
1966201N21156 1966 43 WP MM NOT_NAMED 1966-07-20 12:00:00 TS 21.2000 153.800 main 2036 1993 __O___________ -1 21.2000 153.800 0 1010 10 293
1966201N21156 1966 43 WP MM NOT_NAMED 1966-07-20 15:00:00 TS 21.3922 153.377 main 1993 1950 __P___________ -1 21.3922 153.377 0 1009 8 298
1966201N21156 1966 43 WP MM NOT_NAMED 1966-07-20 18:00:00 TS 21.6000 153.000 main 1950 1908 __O___________ -1 21.6000 153.000 0 1008 8 300
1966201N21156 1966 43 WP MM NOT_NAMED 1966-07-20 21:00:00 TS 21.8075 152.592 main 1908 1866 __P___________ -1 21.8075 152.592 0 1008 8 298
1966201N21156 1966 43 WP MM NOT_NAMED 1966-07-21 00:00:00 TS 22.0000 152.200 main 1866 1830 __O___________ -1 22.0000 152.200 0 1008 8 297
1966201N21156 1966 43 WP MM NOT_NAMED 1966-07-21 03:00:00 TS 22.1649 151.842 main 1824 1797 __P___________ -1 22.1649 151.842 0 1008 7 295
1966201N21156 1966 43 WP MM NOT_NAMED 1966-07-21 06:00:00 TS 22.3000 151.500 main 1797 1771 __O___________ -1 22.3000 151.500 0 1008 7 291
1966201N21156 1966 43 WP MM NOT_NAMED 1966-07-21 09:00:00 TS 22.4150 151.142 main 1765 1739 __P___________ -1 22.4150 151.142 0 1008 7 287
1966201N21156 1966 43 WP MM NOT_NAMED 1966-07-21 12:00:00 TS 22.5000 150.800 main 1739 1722 __O___________ -1 22.5000 150.800 0 1008 6 283
1966201N21156 1966 43 WP MM NOT_NAMED 1966-07-21 15:00:00 TS 22.5499 150.500 main 1722 1696 __P___________ -1 22.5499 150.500 0 1008 6 280
1966201N21156 1966 43 WP MM NOT_NAMED 1966-07-21 18:00:00 TS 22.6000 150.200 main 1696 1670 __O___________ -1 22.6000 150.200 0 1008 6 283
1966201N21156 1966 43 WP MM NOT_NAMED 1966-07-21 21:00:00 TS 22.6925 149.850 main 1670 1639 __P___________ -1 22.6925 149.850 0 1008 7 287
1966201N21156 1966 43 WP MM NOT_NAMED 1966-07-22 00:00:00 TS 22.8000 149.500 main 1639 1614 __O___________ -1 22.8000 149.500 0 1008 6 290
1966201N21156 1966 43 WP MM NOT_NAMED 1966-07-22 03:00:00 TS 22.9074 149.200 main 1614 1588 __P___________ -1 22.9074 149.200 0 1008 6 290
1966201N21156 1966 43 WP MM NOT_NAMED 1966-07-22 06:00:00 TS 23.0000 148.900 main 1588 1563 __O___________ -1 23.0000 148.900 0 1008 6 284
1966201N21156 1966 43 WP MM NOT_NAMED 1966-07-22 09:00:00 TS 23.0575 148.550 main 1558 1542 __P___________ -1 23.0575 148.550 0 1008 7 279
1966201N21156 1966 43 WP MM NOT_NAMED 1966-07-22 12:00:00 TS 23.1000 148.200 main 1542 1527 __O___________ -1 23.1000 148.200 0 1008 6 278
1966201N21156 1966 43 WP MM NOT_NAMED 1966-07-22 15:00:00 TS 23.1424 147.892 main 1527 1503 __P___________ -1 23.1424 147.892 0 1008 6 280
1966201N21156 1966 43 WP MM NOT_NAMED 1966-07-22 18:00:00 TS 23.2000 147.600 main 1503 1479 __O___________ -1 23.2000 147.600 0 1008 6 285
1966201N21156 1966 43 WP MM NOT_NAMED 1966-07-22 21:00:00 TS 23.2849 147.300 main 1479 1455 __P___________ -1 23.2849 147.300 0 1008 6 290
1966201N21156 1966 43 WP MM NOT_NAMED 1966-07-23 00:00:00 TS 23.4000 147.000 main 1455 1432 __O___________ -1 23.4000 147.000 0 1008 6 294
1966201N21156 1966 43 WP MM NOT_NAMED 1966-07-23 03:00:00 TS 23.5350 146.692 main 1432 1398 __P___________ -1 23.5350 146.692 0 1008 6 299
1966201N21156 1966 43 WP MM NOT_NAMED 1966-07-23 06:00:00 TS 23.7000 146.400 main 1398 1369 __O___________ -1 23.7000 146.400 0 1008 6 305
1966201N21156 1966 43 WP MM NOT_NAMED 1966-07-23 09:00:00 TS 23.8924 146.142 main 1365 1336 __P___________ -1 23.8924 146.142 0 1008 6 311
1966201N21156 1966 43 WP MM NOT_NAMED 1966-07-23 12:00:00 TS 24.1000 145.900 main 1336 1308 __O___________ -1 24.1000 145.900 0 1008 6 312
1966201N21156 1966 43 WP MM NOT_NAMED 1966-07-23 15:00:00 TS 24.3000 145.650 main 1304 1275 __P___________ -1 24.3000 145.650 0 1008 6 311
1966201N21156 1966 43 WP MM NOT_NAMED 1966-07-23 18:00:00 TS 24.5000 145.400 main 1275 1247 __O___________ -1 24.5000 145.400 0 1008 6 311
1966201N21156 1966 43 WP MM NOT_NAMED 1966-07-23 21:00:00 TS 24.7000 145.142 main 1243 1214 __P___________ -1 24.7000 145.142 0 1008 6 311
1966201N21156 1966 43 WP MM NOT_NAMED 1966-07-24 00:00:00 TS 24.9000 144.900 main 1214 1186 __O___________ -1 24.9000 144.900 0 1008 6 315
1966201N21156 1966 43 WP MM NOT_NAMED 1966-07-24 03:00:00 TS 25.0999 144.692 main 1186 1158 __P___________ -1 25.0999 144.692 0 1008 5 318
1966201N21156 1966 43 WP MM NOT_NAMED 1966-07-24 06:00:00 TS 25.3000 144.500 main 1158 1130 __O___________ -1 25.3000 144.500 0 1008 5 318
1966201N21156 1966 43 WP MM NOT_NAMED 1966-07-24 09:00:00 TS 25.4925 144.300 main 1130 1102 __P___________ -1 25.4925 144.300 0 1007 5 318
1966201N21156 1966 43 WP MM NOT_NAMED 1966-07-24 12:00:00 TS 25.7000 144.100 main 1102 1074 __O___________ -1 25.7000 144.100 0 1007 6 323
1966201N21156 1966 43 WP MM NOT_NAMED 1966-07-24 15:00:00 TS 25.9574 143.908 main 1064 1036 __P___________ -1 25.9574 143.908 0 1007 6 324
1966201N21156 1966 43 WP MM NOT_NAMED 1966-07-24 18:00:00 TS 26.2000 143.700 main 1036 1008 __O___________ -1 26.2000 143.700 0 1007 6 316
1966201N21156 1966 43 WP MM NOT_NAMED 1966-07-24 21:00:00 TS 26.3650 143.465 main 1008 988 __P___________ -1 26.3650 143.465 0 1007 5 304
1966201N21156 1966 43 WP MM NOT_NAMED 1966-07-25 00:00:00 TS 26.5000 143.200 main 988 969 __O___________ -1 26.5000 143.200 0 1007 6 301
1966201N21156 1966 43 WP MM NOT_NAMED 1966-07-25 03:00:00 TS 26.6573 142.930 main 958 939 __P___________ -1 26.6573 142.930 0 1006 6 299
1966201N21156 1966 43 WP MM NOT_NAMED 1966-07-25 06:00:00 TS 26.8000 142.600 main 939 918 __O___________ -1 26.8000 142.600 1 29 1005 7 292
1966201N21156 1966 43 WP MM NOT_NAMED 1966-07-25 09:00:00 TS 26.9224 142.188 main 918 891 __P___________ -1 26.9224 142.188 1 29 1005 8 284
1966201N21156 1966 43 WP MM NOT_NAMED 1966-07-25 12:00:00 TS 27.0000 141.700 main 891 878 __O___________ -1 27.0000 141.700 1 29 1005 9 278
1966201N21156 1966 43 WP MM NOT_NAMED 1966-07-25 15:00:00 TS 27.0449 141.165 main 878 849 __P___________ -1 27.0449 141.165 1 29 1005 10 270
1966201N21156 1966 43 WP MM NOT_NAMED 1966-07-25 18:00:00 TS 27.0000 140.600 main 849 834 __O___________ -1 27.0000 140.600 1 29 1005 10 259
1966201N21156 1966 43 WP MM NOT_NAMED 1966-07-25 21:00:00 TS 26.8449 140.042 main 839 830 __P___________ -1 26.8449 140.042 1 29 1004 11 248
1966201N21156 1966 43 WP MM NOT_NAMED 1966-07-26 00:00:00 TS 26.6000 139.500 main 837 833 __O___________ -1 26.6000 139.500 1 29 1004 10 239
1966201N21156 1966 43 WP MM NOT_NAMED 1966-07-26 03:00:00 TS 26.3141 139.045 main 850 850 __P___________ -1 26.3141 139.045 1 29 1003 11 236
1966201N21156 1966 43 WP MM NOT_NAMED 1966-07-26 06:00:00 TS 26.0000 138.500 main 865 863 __O___________ -1 26.0000 138.500 1 29 1002 14 242
1966201N21156 1966 43 WP MM NOT_NAMED 1966-07-26 09:00:00 TS 25.6630 137.687 main 878 852 __P___________ -1 25.6630 137.687 1 29 1001 16 249
1966201N21156 1966 43 WP MM NOT_NAMED 1966-07-26 12:00:00 TS 25.4000 136.800 main 852 821 __O___________ -1 25.4000 136.800 1 29 1000 15 257
1966201N21156 1966 43 WP MM NOT_NAMED 1966-07-26 15:00:00 TS 25.3121 136.021 main 815 779 __P___________ -1 25.3121 136.021 1 29 1001 14 266
1966201N21156 1966 43 WP MM NOT_NAMED 1966-07-26 18:00:00 TS 25.3000 135.300 main 779 747 __O___________ -1 25.3000 135.300 1 29 1002 12 267
1966201N21156 1966 43 WP MM NOT_NAMED 1966-07-26 21:00:00 TS 25.2493 134.650 main 756 723 __P___________ -1 25.2493 134.650 1 29 1002 12 265
1966201N21156 1966 43 WP MM NOT_NAMED 1966-07-27 00:00:00 TS 25.2000 134.000 main 723 695 __O___________ -1 25.2000 134.000 1 29 1002 13 265
1966201N21156 1966 43 WP MM NOT_NAMED 1966-07-27 03:00:00 TS 25.1500 133.258 main 706 681 __P___________ -1 25.1500 133.258 1 29 1002 14 266
1966201N21156 1966 43 WP MM NOT_NAMED 1966-07-27 06:00:00 TS 25.1000 132.500 main 681 669 __O___________ -1 25.1000 132.500 1 29 1003 13 266
1966201N21156 1966 43 WP MM NOT_NAMED 1966-07-27 09:00:00 TS 25.0567 131.815 main 667 665 __P___________ -1 25.0567 131.815 1 29 1003 13 265
1966201N21156 1966 43 WP MM NOT_NAMED 1966-07-27 12:00:00 TS 25.0000 131.100 main 671 669 __O___________ -1 25.0000 131.100 1 29 1004 14 264
1966201N21156 1966 43 WP MM NOT_NAMED 1966-07-27 15:00:00 TS 24.9152 130.250 main 682 682 __P___________ -1 24.9152 130.250 1 29 1004 16 263
1966201N21156 1966 43 WP MM NOT_NAMED 1966-07-27 18:00:00 TS 24.8000 129.400 main 703 676 __O___________ -1 24.8000 129.400 1 29 1004 15 260
1966201N21156 1966 43 WP MM NOT_NAMED 1966-07-27 21:00:00 TS 24.6572 128.648 main 666 608 __P___________ -1 24.6572 128.648 1 29 1004 13 257
1966201N21156 1966 43 WP MM NOT_NAMED 1966-07-28 00:00:00 TS 24.5000 128.000 main 608 559 __O___________ -1 24.5000 128.000 1 29 1004 11 255
1966201N21156 1966 43 WP MM NOT_NAMED 1966-07-28 03:00:00 TS 24.3718 127.493 main 559 513 __P___________ -1 24.3718 127.493 1 29 1003 10 252
1966201N21156 1966 43 WP MM NOT_NAMED 1966-07-28 06:00:00 TS 24.2000 127.000 main 513 458 __O___________ -1 24.2000 127.000 1 29 1002 11 246
1966201N21156 1966 43 WP MM NOT_NAMED 1966-07-28 09:00:00 TS 23.9225 126.372 main 461 398 __P___________ -1 23.9225 126.372 1 29 1002 13 243
1966201N21156 1966 43 WP MM NOT_NAMED 1966-07-28 12:00:00 TS 23.6000 125.700 main 398 351 __O___________ -1 23.6000 125.700 1 29 1002 14 242
1966201N21156 1966 43 WP MM NOT_NAMED 1966-07-28 15:00:00 TS 23.2771 125.058 main 351 304 __P___________ -1 23.2771 125.058 1 29 1002 13 243
1966201N21156 1966 43 WP MM NOT_NAMED 1966-07-28 18:00:00 TS 23.0000 124.400 main 304 237 __O___________ -1 23.0000 124.400 1 29 1002 14 247
1966201N21156 1966 43 WP MM NOT_NAMED 1966-07-28 21:00:00 TS 22.7452 123.669 main 239 169 __P___________ -1 22.7452 123.669 1 29 1002 13 257
1966201N21156 1966 43 WP MM NOT_NAMED 1966-07-29 00:00:00 TS 22.7000 123.000 main 169 113 __O___________ -1 22.7000 123.000 1 29 1002 11 283
1966201N21156 1966 43 WP MM NOT_NAMED 1966-07-29 03:00:00 TS 23.0021 122.505 main 113 65 __P___________ -1 23.0021 122.505 1 24 1002 12 314
1966201N21156 1966 43 WP MM NOT_NAMED 1966-07-29 06:00:00 TS 23.5000 122.100 main 65 15 __O___________ -1 23.5000 122.100 0 19 1002 13 323
1966201N21156 1966 43 WP MM NOT_NAMED 1966-07-29 09:00:00 TS 23.9999 121.678 main 15 0 __P___________ -1 23.9999 121.678 0 19 1002 12 324
1966201N21156 1966 43 WP MM NOT_NAMED 1966-07-29 12:00:00 TS 24.5000 121.300 main 0 0 __O___________ -1 24.5000 121.300 0 19 1003 11 324
1966201N21156 1966 43 WP MM NOT_NAMED 1966-07-29 15:00:00 TS 24.8999 120.970 main 0 0 __P___________ -1 24.8999 120.970 0 19 1003 10 326
1966201N21156 1966 43 WP MM NOT_NAMED 1966-07-29 18:00:00 TS 25.3000 120.700 main 45 45 __O___________ -1 25.3000 120.700 0 19 1004 10 333
1966201N21156 1966 43 WP MM NOT_NAMED 1966-07-29 21:00:00 TS 25.7751 120.485 main 80 38 __P___________ -1 25.7751 120.485 0 19 1004 11 340
1966201N21156 1966 43 WP MM NOT_NAMED 1966-07-30 00:00:00 TS 26.3000 120.300 main 38 __O___________ -1 26.3000 120.300 0 19 1005 11 342

デジタル台風データ・検索

IBTrACS Databaseについて

本データベースは、米国NOAAが公開する1842年以降の世界の熱帯低気圧のベストトラックデータアーカイブInternational Best Track Archive for Climate Stewardship (IBTrACS)を、ウェブで閲覧しやすい形式に変換したものです。

最終更新日:2021-12-06